Weather History for KHNB - June, 2013

Change the Weather History Date:

Wednesday, June 26, 2013

  Actual Average Record
Temperature  
Mean Temperature 78 °F -  
Max Temperature 87 °F 81 °F 93 °F (2008)
Min Temperature 69 °F 62 °F 57 °F (2001)
Cooling Degree Days 13    
Growing Degree Days 28 (Base 50)    
Moisture  
Dew Point 69 °F    
Average Humidity 75    
Maximum Humidity 89    
Minimum Humidity 62    
Precipitation  
Precipitation 1.09 in - - ()
Sea Level Pressure  
Sea Level Pressure 29.88 in    
Wind  
Wind Speed 10 mph (SSW)    
Max Wind Speed 23 mph    
Max Gust Speed 30 mph    
Visibility 10 miles    
Events Thunderstorm    
Averages and records for this station are not official NWS values.
T = Trace of Precipitation, MM = Missing Value Source: NWS Daily Summary

Daily Weather History Graph

Daily Weather History Graph

Search for Another Location

Airport or City:

Trip Planner

Search our weather history database for the weather conditions in past years. The results will help you decide how hot, cold, wet, or windy it might be!

Date:

Astronomy

Jun. 26, 2013 Rise Set
Actual Time 6:26 AM EDT 9:15 PM EDT
Civil Twilight 5:54 AM EDT 9:46 PM EDT
Nautical Twilight 5:14 AM EDT 10:26 PM EDT
Astronomical Twilight 4:29 AM EDT 11:11 PM EDT
Moon 11:42 PM EDT (6/26) 10:13 AM EDT (6/26)
Length of Visible Light 15h 52m
Length of Day
14h 49m
Waning Gibbous, 85% of the Moon is Illuminated
Jun 26
Waning Gibbous
Jun 30
Last Quarter
Jul 8
New
Jul 15
First Quarter
Jul 22
Full

Hourly Weather History & Observations

Time (EDT) Temp. Heat Index Dew Point Humidity Pressure Visibility Wind Dir Wind Speed Gust Speed Precip Events Conditions
12:15 AM 78.8 °F - 71.6 °F 78% 29.95 in 10.0 mi South 9.2 mph - N/A   Clear
12:35 AM 78.8 °F - 71.6 °F 78% 29.96 in 10.0 mi South 8.1 mph - N/A   Clear
12:55 AM 78.8 °F - 71.6 °F 78% 29.95 in 10.0 mi SSW 8.1 mph - N/A   Clear
1:15 AM 78.8 °F - 71.6 °F 78% 29.95 in 10.0 mi SSW 10.4 mph - N/A   Clear
1:35 AM 78.8 °F - 71.6 °F 78% 29.96 in 10.0 mi SSW 9.2 mph - N/A   Clear
1:55 AM 78.8 °F - 71.6 °F 78% 29.96 in 10.0 mi SW 9.2 mph - N/A   Clear
2:15 AM 78.8 °F - 71.6 °F 78% 29.97 in 10.0 mi SW 6.9 mph - N/A   Clear
2:35 AM 77.0 °F - 71.6 °F 83% 29.95 in 10.0 mi SSW 11.5 mph - N/A   Clear
2:55 AM 77.0 °F - 71.6 °F 83% 29.95 in 10.0 mi SW 6.9 mph - N/A   Clear
3:15 AM 75.2 °F - 69.8 °F 83% 29.96 in 10.0 mi Calm Calm - N/A   Partly Cloudy
3:35 AM 77.0 °F - 69.8 °F 78% 29.96 in 10.0 mi South 3.5 mph - N/A   Clear
3:55 AM 75.2 °F - 71.6 °F 89% 29.96 in 10.0 mi Calm Calm - N/A   Clear
4:15 AM 73.4 °F - 66.2 °F 78% 29.97 in 10.0 mi NNE 11.5 mph - N/A   Clear
4:35 AM 71.6 °F - 64.4 °F 78% 29.97 in 10.0 mi NE 13.8 mph - N/A   Mostly Cloudy
4:55 AM 71.6 °F - 64.4 °F 78% 29.97 in 10.0 mi NE 12.7 mph - N/A   Mostly Cloudy
5:15 AM 71.6 °F - 62.6 °F 73% 29.96 in 10.0 mi ENE 10.4 mph - N/A   Scattered Clouds
5:35 AM 69.8 °F - 62.6 °F 78% 29.96 in 10.0 mi ENE 5.8 mph - N/A   Clear
5:55 AM 69.8 °F - 62.6 °F 78% 29.96 in 10.0 mi East 6.9 mph - N/A   Clear
6:15 AM 69.8 °F - 62.6 °F 78% 29.95 in 10.0 mi SE 9.2 mph - N/A   Clear
6:35 AM 69.8 °F - 62.6 °F 78% 29.95 in 10.0 mi SE 9.2 mph - N/A   Clear
6:55 AM 69.8 °F - 62.6 °F 78% 29.95 in 10.0 mi SE 8.1 mph - N/A   Clear
7:15 AM 69.8 °F - 62.6 °F 78% 29.95 in 10.0 mi SSE 8.1 mph - N/A   Clear
7:35 AM 69.8 °F - 62.6 °F 78% 29.95 in 10.0 mi SSE 8.1 mph - N/A   Partly Cloudy
7:55 AM 71.6 °F - 62.6 °F 73% 29.95 in 10.0 mi SE 5.8 mph - N/A   Partly Cloudy
8:15 AM 71.6 °F - 64.4 °F 78% 29.95 in 10.0 mi SSE 5.8 mph - N/A   Scattered Clouds
8:35 AM 73.4 °F - 64.4 °F 73% 29.95 in 10.0 mi SSE 6.9 mph - N/A   Partly Cloudy
8:55 AM 73.4 °F - 66.2 °F 78% 29.95 in 10.0 mi SSE 6.9 mph - N/A   Clear
9:15 AM 75.2 °F - 66.2 °F 73% 29.95 in 10.0 mi SSE 8.1 mph - N/A   Clear
9:35 AM 77.0 °F - 68.0 °F 74% 29.95 in 10.0 mi South 10.4 mph - N/A   Clear
9:55 AM 78.8 °F - 69.8 °F 74% 29.96 in 10.0 mi South 9.2 mph - N/A   Clear
10:15 AM 78.8 °F - 69.8 °F 74% 29.95 in 10.0 mi South 10.4 mph - N/A   Clear
10:35 AM 78.8 °F - 69.8 °F 74% 29.94 in 10.0 mi South 9.2 mph - N/A   Clear
10:55 AM 80.6 °F 84.6 °F 71.6 °F 74% 29.92 in 10.0 mi SSW 13.8 mph 20.7 mph N/A   Clear
11:15 AM 80.6 °F 84.6 °F 71.6 °F 74% 29.91 in 10.0 mi SSW 12.7 mph 17.3 mph N/A   Clear
11:35 AM 80.6 °F 84.6 °F 71.6 °F 74% 29.87 in 10.0 mi South 17.3 mph 20.7 mph N/A   Clear
11:55 AM 80.6 °F 84.6 °F 71.6 °F 74% 29.87 in 10.0 mi SSW 15.0 mph 21.9 mph N/A   Clear
12:15 PM 82.4 °F 87.2 °F 71.6 °F 70% 29.88 in 10.0 mi SSW 17.3 mph 24.2 mph N/A   Clear
12:35 PM 80.6 °F 83.9 °F 69.8 °F 70% 29.87 in 10.0 mi South 18.4 mph 24.2 mph N/A   Clear
12:55 PM 80.6 °F 84.6 °F 71.6 °F 74% 29.87 in 10.0 mi SSW 15.0 mph 20.7 mph N/A   Clear
1:15 PM 82.4 °F 87.2 °F 71.6 °F 70% 29.88 in 10.0 mi SSW 13.8 mph - N/A   Clear
1:35 PM 84.2 °F 90.9 °F 73.4 °F 70% 29.88 in 10.0 mi SW 23.0 mph 28.8 mph N/A   Partly Cloudy
1:55 PM 84.2 °F 90.9 °F 73.4 °F 70% 29.88 in 10.0 mi SW 20.7 mph 28.8 mph N/A   Partly Cloudy
2:15 PM 86.0 °F 93.4 °F 73.4 °F 66% 29.87 in 10.0 mi SSW 16.1 mph 23.0 mph N/A   Scattered Clouds
2:35 PM 87.8 °F 95.6 °F 73.4 °F 62% 29.86 in 10.0 mi SW 18.4 mph 25.3 mph N/A   Scattered Clouds
2:55 PM 86.0 °F 93.4 °F 73.4 °F 66% 29.86 in 10.0 mi SSW 21.9 mph 28.8 mph N/A   Scattered Clouds
3:15 PM 86.0 °F 93.4 °F 73.4 °F 66% 29.85 in 10.0 mi SSW 18.4 mph 25.3 mph N/A   Scattered Clouds
3:35 PM 86.0 °F 93.4 °F 73.4 °F 66% 29.84 in 10.0 mi SSW 21.9 mph 29.9 mph N/A   Scattered Clouds
3:55 PM 84.2 °F 90.9 °F 73.4 °F 70% 29.83 in 10.0 mi SW 17.3 mph 25.3 mph N/A   Scattered Clouds
4:15 PM 84.2 °F 89.6 °F 71.6 °F 66% 29.82 in 10.0 mi SSW 13.8 mph 25.3 mph N/A   Mostly Cloudy
4:35 PM 87.8 °F 95.6 °F 73.4 °F 62% 29.80 in 10.0 mi SSW 15.0 mph 27.6 mph N/A   Scattered Clouds
4:55 PM 86.0 °F 93.4 °F 73.4 °F 66% 29.79 in 10.0 mi SSW 20.7 mph 26.5 mph N/A   Mostly Cloudy
5:15 PM 87.8 °F 95.6 °F 73.4 °F 62% 29.78 in 10.0 mi SSW 17.3 mph 20.7 mph N/A   Scattered Clouds
5:35 PM 87.8 °F 95.6 °F 73.4 °F 62% 29.78 in 10.0 mi SSW 15.0 mph 21.9 mph N/A   Scattered Clouds
5:55 PM 86.0 °F 93.4 °F 73.4 °F 66% 29.77 in 10.0 mi South 12.7 mph - N/A   Scattered Clouds
6:15 PM 84.2 °F 90.9 °F 73.4 °F 70% 29.77 in 10.0 mi SSW 12.7 mph 16.1 mph N/A   Partly Cloudy
6:35 PM 84.2 °F 90.9 °F 73.4 °F 70% 29.76 in 10.0 mi SSW 12.7 mph - N/A   Partly Cloudy
6:55 PM 84.2 °F 90.9 °F 73.4 °F 70% 29.75 in 10.0 mi SSW 13.8 mph 20.7 mph N/A   Partly Cloudy
7:15 PM 84.2 °F 90.9 °F 73.4 °F 70% 29.74 in 8.0 mi SSW 13.8 mph 18.4 mph N/A   Partly Cloudy
7:35 PM 82.4 °F 88.2 °F 73.4 °F 74% 29.73 in 9.0 mi SW 15.0 mph - N/A Thunderstorm Clear
7:55 PM 84.2 °F 89.6 °F 71.6 °F 66% 29.72 in 10.0 mi SSW 11.5 mph - N/A Thunderstorm Clear
8:15 PM 84.2 °F 89.6 °F 71.6 °F 66% 29.73 in 10.0 mi SW 13.8 mph - N/A Thunderstorm Partly Cloudy
8:35 PM 82.4 °F 87.2 °F 71.6 °F 70% 29.72 in 10.0 mi SSW 10.4 mph - N/A   Partly Cloudy
8:55 PM 78.8 °F - 69.8 °F 74% 29.74 in 10.0 mi NNE 17.3 mph 21.9 mph N/A Thunderstorm Thunderstorm
9:15 PM 71.6 °F - 66.2 °F 83% 29.79 in 2.5 mi WNW 15.0 mph 29.9 mph 0.89 in Thunderstorm Thunderstorm
9:35 PM 71.6 °F - 66.2 °F 83% 29.83 in 10.0 mi WSW 12.7 mph - 0.97 in Thunderstorm Thunderstorm
9:55 PM 69.8 °F - 66.2 °F 88% 29.80 in 10.0 mi SSW 3.5 mph - 1.08 in Thunderstorm Thunderstorm
10:15 PM 69.8 °F - 64.4 °F 83% 29.82 in 10.0 mi SW 10.4 mph - 0.01 in Thunderstorm Mostly Cloudy
10:35 PM 69.8 °F - 66.2 °F 88% 29.80 in 10.0 mi SSW 9.2 mph - 0.01 in   Scattered Clouds
10:55 PM 69.8 °F - 66.2 °F 88% 29.81 in 10.0 mi South 5.8 mph - 0.01 in   Partly Cloudy
11:15 PM 69.8 °F - 66.2 °F 88% 29.80 in 10.0 mi SSE 5.8 mph - N/A   Clear
11:35 PM 69.8 °F - 66.2 °F 88% 29.79 in 10.0 mi SSW 4.6 mph - N/A   Partly Cloudy